createdAt,value
2023-01-21T00:02:52.556Z,99999.59
2023-01-21T00:06:20.187Z,100002.05
2023-01-21T00:09:09.136Z,100007.11
2023-01-21T00:12:17.198Z,100008.20
2023-01-21T00:15:44.745Z,99996.39
2023-01-21T00:19:12.407Z,99998.00
2023-01-21T00:22:20.860Z,100000.76
2023-01-21T00:25:48.460Z,99996.00
2023-01-21T00:29:16.137Z,99991.49
2023-01-21T00:32:23.751Z,99992.31
2023-01-21T00:35:31.246Z,99997.02
2023-01-21T00:38:58.770Z,99994.86
2023-01-21T00:42:26.433Z,99997.27
2023-01-21T00:45:16.407Z,99994.75
2023-01-21T00:48:25.044Z,99993.08
2023-01-21T00:51:33.660Z,100003.52
2023-01-21T00:54:41.863Z,100012.80
2023-01-21T00:58:09.420Z,100020.98
2023-01-21T01:01:18.092Z,100029.48
2023-01-21T01:04:26.510Z,100021.20
2023-01-21T01:07:34.964Z,100018.04
2023-01-21T01:10:43.292Z,100025.41
2023-01-21T01:14:10.826Z,100025.19
2023-01-21T01:17:19.795Z,100025.05
2023-01-21T01:20:47.416Z,100015.64
2023-01-21T01:24:15.143Z,100011.70
2023-01-21T01:27:42.629Z,100019.72
2023-01-21T01:31:10.163Z,100025.45
2023-01-21T01:34:37.776Z,100024.57
2023-01-21T01:37:31.415Z,100025.08
2023-01-21T01:40:41.167Z,100024.92
2023-01-21T01:44:09.143Z,100018.26
2023-01-21T01:47:36.669Z,100016.64
2023-01-21T01:50:17.424Z,100020.61
2023-01-21T01:53:32.982Z,100022.44
2023-01-21T01:56:22.800Z,100019.97
2023-01-21T01:59:50.566Z,100027.30
2023-01-21T02:02:58.194Z,100029.05
2023-01-21T02:06:07.762Z,100023.85
2023-01-21T02:09:16.366Z,100025.73
2023-01-21T02:12:24.592Z,100030.92
2023-01-21T02:15:21.806Z,100040.88
2023-01-21T02:18:21.642Z,100044.92
2023-01-21T02:21:30.530Z,100051.86
2023-01-21T02:24:58.297Z,100040.27
2023-01-21T02:28:25.970Z,100031.45
2023-01-21T02:31:53.678Z,100028.96
2023-01-21T02:35:01.198Z,100034.81
2023-01-21T02:38:12.486Z,100040.69
2023-01-21T02:41:28.229Z,100039.61
2023-01-21T02:44:37.801Z,100040.94
2023-01-21T02:47:45.735Z,100028.24
2023-01-21T02:51:13.187Z,100016.55
2023-01-21T02:54:25.059Z,100016.80
2023-01-21T02:57:32.862Z,100020.48
2023-01-21T03:00:22.292Z,100013.96
2023-01-21T03:03:28.840Z,100000.56
2023-01-21T03:06:36.951Z,99984.80
2023-01-21T03:10:04.498Z,99970.54
2023-01-21T03:13:12.984Z,99966.70
2023-01-21T03:16:40.616Z,99961.02
2023-01-21T03:19:30.366Z,99958.11
2023-01-21T03:22:58.087Z,99964.50
2023-01-21T03:26:25.617Z,99972.98
2023-01-21T03:29:13.888Z,99981.75
2023-01-21T03:32:41.628Z,99988.92
2023-01-21T03:36:09.179Z,99992.70
2023-01-21T03:39:36.860Z,99992.34
2023-01-21T03:42:25.774Z,99983.09
2023-01-21T03:45:53.471Z,99980.39
2023-01-21T03:49:09.345Z,99985.08
2023-01-21T03:52:36.951Z,99985.55
2023-01-21T03:55:52.433Z,99998.79
2023-01-21T03:59:20.195Z,99990.16
2023-01-21T04:02:43.681Z,99976.14
2023-01-21T04:06:11.416Z,99978.67
2023-01-21T04:09:39.253Z,99976.23
2023-01-21T04:12:29.661Z,99966.41
2023-01-21T04:15:19.383Z,99973.50
2023-01-21T04:18:47.017Z,99987.85
2023-01-21T04:21:26.431Z,99994.10
2023-01-21T04:24:53.907Z,99990.33
2023-01-21T04:28:21.609Z,99981.75
2023-01-21T04:31:30.205Z,99989.62
2023-01-21T04:34:57.751Z,99990.84
2023-01-21T04:38:07.461Z,99997.84
2023-01-21T04:41:16.911Z,100001.75
2023-01-21T04:44:26.355Z,99993.41
2023-01-21T04:47:00.617Z,99994.02
2023-01-21T04:50:28.222Z,100000.00
2023-01-21T04:52:58.286Z,100008.80
2023-01-21T04:56:25.897Z,100012.41
2023-01-21T04:59:53.648Z,100018.55
2023-01-21T05:03:21.114Z,100027.19
2023-01-21T05:06:30.620Z,100021.61
2023-01-21T05:09:21.690Z,100010.87
2023-01-21T05:12:49.389Z,100004.79
2023-01-21T05:16:17.036Z,100002.77
2023-01-21T05:19:44.606Z,100003.13
2023-01-21T05:22:14.592Z,100009.52
2023-01-21T05:25:42.178Z,100018.14
2023-01-21T05:28:57.540Z,100016.98
2023-01-21T05:32:25.240Z,100027.86
2023-01-21T05:35:52.791Z,100022.91
2023-01-21T05:39:20.455Z,100030.44
2023-01-21T05:42:28.896Z,100025.16
2023-01-21T05:45:56.550Z,100017.11
2023-01-21T05:49:25.141Z,100012.20
2023-01-21T05:52:52.720Z,100004.05
2023-01-21T05:56:20.458Z,99997.98
2023-01-21T05:59:48.230Z,99995.84
2023-01-21T06:03:16.111Z,100009.00
2023-01-21T06:06:24.787Z,100015.98
2023-01-21T06:09:33.521Z,100028.68
2023-01-21T06:12:42.070Z,100035.67
2023-01-21T06:16:09.643Z,100041.46
2023-01-21T06:19:37.204Z,100036.34
2023-01-21T06:22:45.791Z,100031.83
2023-01-21T06:25:54.428Z,100034.39
2023-01-21T06:29:22.060Z,100038.20
2023-01-21T06:32:49.537Z,100053.83
2023-01-21T06:36:18.549Z,100063.13
2023-01-21T06:39:45.008Z,100063.98
2023-01-21T06:42:54.323Z,100059.36
2023-01-21T06:46:22.043Z,100055.43
2023-01-21T06:49:49.607Z,100071.52
2023-01-21T06:53:18.028Z,100082.67
2023-01-21T06:56:45.919Z,100087.12
2023-01-21T06:59:34.284Z,100092.16
2023-01-21T07:03:02.144Z,100097.92
2023-01-21T07:06:10.729Z,100091.59
2023-01-21T07:09:19.461Z,100088.67
2023-01-21T07:12:47.324Z,100082.69
2023-01-21T07:16:14.923Z,100074.73
2023-01-21T07:19:42.472Z,100067.38
2023-01-21T07:23:10.319Z,100074.41
2023-01-21T07:26:37.865Z,100078.90
2023-01-21T07:30:05.544Z,100079.02
2023-01-21T07:33:33.243Z,100073.90
2023-01-21T07:36:42.028Z,100067.13
2023-01-21T07:40:09.835Z,100063.67
2023-01-21T07:43:37.579Z,100061.13
2023-01-21T07:47:05.151Z,100058.83
2023-01-21T07:50:32.720Z,100057.56
2023-01-21T07:54:00.345Z,100069.98
2023-01-21T07:57:27.909Z,100074.66
2023-01-21T08:00:55.329Z,100078.11
2023-01-21T08:04:23.528Z,100077.27
2023-01-21T08:07:51.193Z,100082.02
2023-01-21T08:11:18.721Z,100072.92
2023-01-21T08:14:46.513Z,100065.31
2023-01-21T08:18:13.944Z,100058.92
2023-01-21T08:21:41.586Z,100053.46
2023-01-21T08:25:09.532Z,100053.66
2023-01-21T08:28:37.131Z,100045.30
2023-01-21T08:31:45.776Z,100042.58
2023-01-21T08:35:13.280Z,100047.00
2023-01-21T08:38:40.968Z,100058.17
2023-01-21T08:42:08.576Z,100059.73
2023-01-21T08:45:36.443Z,100058.84
2023-01-21T08:49:04.350Z,100041.29
2023-01-21T08:52:32.268Z,100045.46
2023-01-21T08:56:00.061Z,100050.05
2023-01-21T08:59:08.698Z,100051.33
2023-01-21T09:01:57.689Z,100048.02
2023-01-21T09:05:25.313Z,100037.41
2023-01-21T09:08:34.999Z,100037.34
2023-01-21T09:12:02.780Z,100032.81
2023-01-21T09:15:30.591Z,100030.94
2023-01-21T09:18:58.121Z,100027.54
2023-01-21T09:21:54.613Z,100036.23
2023-01-21T09:25:03.297Z,100036.17
2023-01-21T09:28:33.667Z,100032.39
2023-01-21T09:32:01.239Z,100025.19
2023-01-21T09:35:09.129Z,100025.64
2023-01-21T09:38:20.636Z,100028.53
2023-01-21T09:41:48.293Z,100036.69
2023-01-21T09:45:16.177Z,100047.95
2023-01-21T09:48:43.697Z,100041.98
2023-01-21T09:52:11.209Z,100041.60
2023-01-21T09:55:38.755Z,100036.71
2023-01-21T09:59:06.549Z,100024.02
2023-01-21T10:02:34.127Z,100013.22
2023-01-21T10:06:01.788Z,100012.80
2023-01-21T10:09:29.231Z,100007.23
2023-01-21T10:12:57.690Z,100011.83
2023-01-21T10:16:25.351Z,100004.91
2023-01-21T10:19:53.006Z,100003.19
2023-01-21T10:23:00.524Z,100007.27
2023-01-21T10:26:28.371Z,100011.27
2023-01-21T10:29:56.109Z,100019.48
2023-01-21T10:33:04.676Z,100021.80
2023-01-21T10:36:34.934Z,100017.73
2023-01-21T10:39:59.695Z,100009.27
2023-01-21T10:43:27.243Z,100002.63
2023-01-21T10:47:03.567Z,100001.63
2023-01-21T10:50:26.956Z,99992.36
2023-01-21T10:53:54.634Z,99986.94
2023-01-21T10:57:22.372Z,99983.69
2023-01-21T11:00:50.070Z,99985.04
2023-01-21T11:04:17.801Z,99978.13
2023-01-21T11:07:45.398Z,99970.73
2023-01-21T11:10:54.663Z,99973.42
2023-01-21T11:14:22.380Z,99979.95
2023-01-21T11:17:31.443Z,99979.76
2023-01-21T11:20:59.065Z,99984.32
2023-01-21T11:24:26.701Z,99979.33
2023-01-21T11:27:54.470Z,99981.71
2023-01-21T11:31:22.279Z,99983.08
2023-01-21T11:34:50.010Z,99977.92
2023-01-21T11:38:17.738Z,99978.11
2023-01-21T11:41:45.428Z,99980.09
2023-01-21T11:44:58.478Z,99983.14
2023-01-21T11:48:26.263Z,99984.27
2023-01-21T11:51:34.924Z,99982.69
2023-01-21T11:55:02.615Z,99979.41
2023-01-21T11:58:10.620Z,99973.14
2023-01-21T12:01:19.210Z,99967.73
2023-01-21T12:04:27.857Z,99965.98
2023-01-21T12:07:43.716Z,99964.77
2023-01-21T12:11:11.452Z,99965.83
2023-01-21T12:14:39.195Z,99972.14
2023-01-21T12:18:06.772Z,99965.94
2023-01-21T12:21:15.054Z,99963.09
2023-01-21T12:24:42.959Z,99959.84
2023-01-21T12:28:10.873Z,99957.61
2023-01-21T12:31:38.676Z,99956.37
2023-01-21T12:34:47.309Z,99948.77
2023-01-21T12:38:15.098Z,99942.58
2023-01-21T12:41:42.731Z,99955.45
2023-01-21T12:45:10.445Z,99966.04
2023-01-21T12:48:18.999Z,99969.91
2023-01-21T12:51:46.774Z,99973.31
2023-01-21T12:54:55.652Z,99974.26
2023-01-21T12:58:23.502Z,99973.53
2023-01-21T13:01:53.420Z,99974.09
2023-01-21T13:05:21.175Z,99969.20
2023-01-21T13:08:48.856Z,99966.41
2023-01-21T13:12:16.627Z,99960.27
2023-01-21T13:15:25.457Z,99959.00
2023-01-21T13:18:53.141Z,99949.23
2023-01-21T13:22:20.964Z,99951.55
2023-01-21T13:25:48.713Z,99961.33
2023-01-21T13:29:16.445Z,99964.80
2023-01-21T13:32:44.256Z,99968.03
2023-01-21T13:35:52.563Z,99959.14
2023-01-21T13:39:20.420Z,99957.17
2023-01-21T13:42:48.027Z,99955.30
2023-01-21T13:46:15.845Z,99953.81
2023-01-21T13:49:24.479Z,99951.74
2023-01-21T13:52:52.392Z,99966.06
2023-01-21T13:56:01.188Z,99977.64
2023-01-21T13:59:28.938Z,100005.85
2023-01-21T14:02:56.668Z,100015.50
2023-01-21T14:06:24.322Z,100025.89
2023-01-21T14:09:52.141Z,100039.95
2023-01-21T14:13:19.638Z,100048.74
2023-01-21T14:16:28.393Z,100053.27
2023-01-21T14:19:57.234Z,100056.34
2023-01-21T14:23:04.629Z,100057.23
2023-01-21T14:26:32.466Z,100057.16
2023-01-21T14:30:00.372Z,100058.48
2023-01-21T14:33:27.906Z,100056.45
2023-01-21T14:36:55.617Z,100061.77
2023-01-21T14:40:23.546Z,100063.15
2023-01-21T14:43:51.352Z,100056.02
2023-01-21T14:47:00.019Z,100040.39
2023-01-21T14:50:27.727Z,100025.09
2023-01-21T14:53:55.421Z,100038.07
2023-01-21T14:57:18.188Z,100044.10
2023-01-21T15:00:31.790Z,100048.60
2023-01-21T15:03:59.553Z,100051.58
2023-01-21T15:07:27.205Z,100052.71
2023-01-21T15:10:54.888Z,100051.66
2023-01-21T15:14:22.815Z,100051.66
2023-01-21T15:16:51.461Z,100057.66
2023-01-21T15:20:19.553Z,100064.23
2023-01-21T15:23:29.132Z,100064.23
2023-01-21T15:26:57.035Z,100068.94
2023-01-21T15:30:04.823Z,100075.09
2023-01-21T15:33:32.434Z,100074.58
2023-01-21T15:36:42.160Z,100076.89
2023-01-21T15:40:09.931Z,100075.67
2023-01-21T15:43:37.556Z,100087.48
2023-01-21T15:47:05.481Z,100088.25
2023-01-21T15:50:17.337Z,100090.92
2023-01-21T15:53:45.092Z,100087.38
2023-01-21T15:57:12.786Z,100083.31
2023-01-21T16:00:40.449Z,100081.60
2023-01-21T16:04:08.226Z,100073.67
2023-01-21T16:06:41.553Z,100073.60
2023-01-21T16:10:09.167Z,100085.73
2023-01-21T16:13:36.877Z,100088.46
2023-01-21T16:17:04.604Z,100093.04
2023-01-21T16:20:32.617Z,100106.20
2023-01-21T16:23:40.816Z,100113.66
2023-01-21T16:27:08.885Z,100116.98
2023-01-21T16:30:36.605Z,100117.83
2023-01-21T16:34:04.202Z,100122.82
2023-01-21T16:37:32.357Z,100123.40
2023-01-21T16:41:00.515Z,100124.10
2023-01-21T16:44:28.048Z,100115.95
2023-01-21T16:47:55.838Z,100119.09
2023-01-21T16:51:23.729Z,100138.98
2023-01-21T16:54:51.413Z,100151.96
2023-01-21T16:58:19.091Z,100159.61
2023-01-21T17:01:46.830Z,100160.81
2023-01-21T17:05:14.870Z,100162.40
2023-01-21T17:08:42.485Z,100161.80
2023-01-21T17:12:10.215Z,100168.34
2023-01-21T17:15:37.903Z,100164.56
2023-01-21T17:19:05.532Z,100164.05
2023-01-21T17:22:33.216Z,100167.02
2023-01-21T17:26:01.022Z,100167.29
2023-01-21T17:29:28.774Z,100167.00
2023-01-21T17:32:56.531Z,100170.77
2023-01-21T17:36:24.364Z,100172.31
2023-01-21T17:39:52.098Z,100175.34
2023-01-21T17:43:00.738Z,100178.23
2023-01-21T17:46:28.477Z,100175.95
2023-01-21T17:49:56.260Z,100184.57
2023-01-21T17:53:24.054Z,100193.23
2023-01-21T17:56:51.747Z,100204.15
2023-01-21T18:00:19.516Z,100205.00
2023-01-21T18:03:47.306Z,100209.65
2023-01-21T18:06:55.024Z,100212.38
2023-01-21T18:10:22.802Z,100221.15
2023-01-21T18:13:50.769Z,100217.64
2023-01-21T18:17:18.469Z,100216.92
2023-01-21T18:20:46.297Z,100184.92
2023-01-21T18:23:36.183Z,100175.36
2023-01-21T18:27:03.803Z,100193.58
2023-01-21T18:30:31.604Z,100205.60
2023-01-21T18:33:40.420Z,100206.43
2023-01-21T18:37:08.406Z,100214.52
2023-01-21T18:40:36.980Z,100221.31
2023-01-21T18:44:04.817Z,100219.80
2023-01-21T18:47:32.695Z,100211.74
2023-01-21T18:51:00.357Z,100212.88
2023-01-21T18:54:27.925Z,100211.63
2023-01-21T18:57:55.717Z,100216.02
2023-01-21T19:01:24.203Z,100216.55
2023-01-21T19:04:51.578Z,100229.70
2023-01-21T19:08:19.410Z,100236.51
2023-01-21T19:11:47.028Z,100236.90
2023-01-21T19:15:14.683Z,100237.52
2023-01-21T19:18:42.785Z,100240.22
2023-01-21T19:22:10.513Z,100246.27
2023-01-21T19:25:37.965Z,100248.22
2023-01-21T19:29:05.799Z,100253.45
2023-01-21T19:32:33.339Z,100254.46
2023-01-21T19:36:01.102Z,100257.27
2023-01-21T19:39:10.768Z,100262.75
2023-01-21T19:42:38.593Z,100269.11
2023-01-21T19:46:06.443Z,100272.86
2023-01-21T19:49:34.324Z,100276.19
2023-01-21T19:53:01.923Z,100277.70
2023-01-21T19:56:29.506Z,100270.92
2023-01-21T19:59:57.263Z,100270.63
2023-01-21T20:02:46.365Z,100267.96
2023-01-21T20:06:14.224Z,100276.47
2023-01-21T20:09:42.062Z,100277.79
2023-01-21T20:13:09.708Z,100286.57
2023-01-21T20:16:37.418Z,100275.35
2023-01-21T20:20:05.037Z,100266.02
2023-01-21T20:23:13.617Z,100274.30
2023-01-21T20:26:41.375Z,100284.95
2023-01-21T20:30:16.019Z,100287.80
2023-01-21T20:33:36.760Z,100274.02
2023-01-21T20:36:53.167Z,100264.33
2023-01-21T20:40:20.838Z,100268.20
2023-01-21T20:43:29.197Z,100278.66
2023-01-21T20:46:37.675Z,100274.05
2023-01-21T20:50:05.278Z,100268.70
2023-01-21T20:53:32.892Z,100262.80
2023-01-21T20:57:00.314Z,100264.27
2023-01-21T21:00:27.856Z,100268.02
2023-01-21T21:03:36.697Z,100270.19
2023-01-21T21:06:26.379Z,100268.70
2023-01-21T21:09:53.965Z,100282.61
2023-01-21T21:13:02.405Z,100287.00
2023-01-21T21:16:30.136Z,100301.23
2023-01-21T21:19:57.828Z,100306.42
2023-01-21T21:23:06.016Z,100326.30
2023-01-21T21:26:33.628Z,100329.02
2023-01-21T21:30:01.459Z,100328.16
2023-01-21T21:33:29.192Z,100327.37
2023-01-21T21:36:57.101Z,100324.08
2023-01-21T21:40:24.844Z,100316.21
2023-01-21T21:43:52.551Z,100295.92
2023-01-21T21:47:20.145Z,100280.00
2023-01-21T21:50:47.825Z,100282.51
2023-01-21T21:54:15.683Z,100287.52
2023-01-21T21:57:43.361Z,100279.44
2023-01-21T22:01:11.448Z,100297.52
2023-01-21T22:04:38.896Z,100295.60
2023-01-21T22:08:06.771Z,100294.45
2023-01-21T22:11:35.031Z,100290.86
2023-01-21T22:15:02.723Z,100295.02
2023-01-21T22:18:30.595Z,100300.03
2023-01-21T22:21:58.164Z,100299.77
2023-01-21T22:25:25.869Z,100301.88
2023-01-21T22:28:53.618Z,100311.71
2023-01-21T22:32:21.131Z,100314.65
2023-01-21T22:35:48.993Z,100319.34
2023-01-21T22:38:57.541Z,100317.02
2023-01-21T22:42:25.304Z,100321.30
2023-01-21T22:45:52.949Z,100313.75
2023-01-21T22:49:20.588Z,100320.30
2023-01-21T22:52:48.345Z,100321.05
2023-01-21T22:56:16.095Z,100322.96
2023-01-21T22:59:25.931Z,100324.73
2023-01-21T23:02:53.612Z,100320.98
2023-01-21T23:06:02.449Z,100323.35
2023-01-21T23:09:30.243Z,100327.00
2023-01-21T23:12:57.929Z,100324.86
2023-01-21T23:16:34.220Z,100327.98
2023-01-21T23:20:02.027Z,100337.73
2023-01-21T23:23:29.596Z,100342.02
2023-01-21T23:26:57.353Z,100337.09
2023-01-21T23:30:06.214Z,100327.76
2023-01-21T23:33:33.778Z,100336.83
2023-01-21T23:37:01.651Z,100340.15
2023-01-21T23:40:29.388Z,100345.44
2023-01-21T23:43:57.207Z,100354.36
2023-01-21T23:47:05.888Z,100341.52
2023-01-21T23:50:14.554Z,100344.08
2023-01-21T23:53:42.323Z,100335.93
2023-01-21T23:56:52.227Z,100334.70
